createdAt,value
2019-03-31T00:03:00.908Z,80.81
2019-03-31T00:07:56.813Z,81.94
2019-03-31T00:12:52.842Z,81.40
2019-03-31T00:17:48.828Z,80.50
2019-03-31T00:22:45.635Z,80.23
2019-03-31T00:27:41.543Z,80.06
2019-03-31T00:32:37.455Z,80.26
2019-03-31T00:37:33.374Z,80.05
2019-03-31T00:42:29.289Z,80.32
2019-03-31T00:47:25.198Z,80.62
2019-03-31T00:52:21.114Z,79.41
2019-03-31T00:57:17.055Z,79.05
2019-03-31T01:02:16.145Z,77.67
2019-03-31T01:07:12.466Z,75.21
2019-03-31T01:12:08.486Z,75.07
2019-03-31T01:17:06.616Z,75.21
2019-03-31T01:22:02.927Z,76.19
2019-03-31T01:26:58.849Z,77.94
2019-03-31T01:31:55.654Z,77.52
2019-03-31T01:36:51.573Z,78.56
2019-03-31T01:41:47.583Z,80.07
2019-03-31T01:46:43.538Z,80.68
2019-03-31T01:51:39.444Z,79.24
2019-03-31T01:56:35.388Z,79.61
2019-03-31T02:01:31.398Z,81.19
2019-03-31T02:06:27.386Z,81.53
2019-03-31T02:11:23.293Z,81.22
2019-03-31T02:16:19.209Z,82.35
2019-03-31T02:21:15.231Z,82.22
2019-03-31T02:26:11.143Z,82.19
2019-03-31T02:31:07.156Z,82.15
2019-03-31T02:36:03.175Z,82.58
2019-03-31T02:40:59.190Z,81.79
2019-03-31T02:45:55.102Z,81.52
2019-03-31T02:50:52.021Z,80.42
2019-03-31T02:55:48.166Z,78.88
2019-03-31T03:00:44.406Z,78.72
2019-03-31T03:05:40.708Z,79.41
2019-03-31T03:10:37.239Z,79.48
2019-03-31T03:16:02.983Z,80.02
2019-03-31T03:20:58.999Z,80.09
2019-03-31T03:25:56.795Z,79.87
2019-03-31T03:30:52.842Z,79.91
2019-03-31T03:35:48.860Z,79.96
2019-03-31T03:40:44.864Z,80.68
2019-03-31T03:45:40.775Z,81.47
2019-03-31T03:50:36.697Z,82.05
2019-03-31T03:55:32.605Z,81.77
2019-03-31T04:00:28.546Z,81.68
2019-03-31T04:05:24.557Z,81.98
2019-03-31T04:10:44.417Z,82.85
2019-03-31T04:15:40.400Z,82.27
2019-03-31T04:20:39.261Z,82.79
2019-03-31T04:25:34.119Z,82.87
2019-03-31T04:30:30.046Z,83.85
2019-03-31T04:35:25.988Z,83.66
2019-03-31T04:40:21.918Z,83.61
2019-03-31T04:45:17.810Z,83.22
2019-03-31T04:50:13.725Z,83.22
2019-03-31T04:55:09.793Z,84.20
2019-03-31T05:00:06.004Z,84.99
2019-03-31T05:05:02.111Z,86.56
2019-03-31T05:09:58.020Z,87.24
2019-03-31T05:14:53.926Z,88.01
2019-03-31T05:19:49.837Z,88.19
2019-03-31T05:24:46.478Z,88.28
2019-03-31T05:29:42.975Z,88.61
2019-03-31T05:34:38.847Z,89.46
2019-03-31T05:39:34.753Z,89.17
2019-03-31T05:44:30.659Z,89.43
2019-03-31T05:49:26.590Z,89.10
2019-03-31T05:54:23.437Z,89.37
2019-03-31T05:59:19.449Z,89.32
2019-03-31T06:04:15.383Z,89.17
2019-03-31T06:09:11.381Z,89.38
2019-03-31T06:14:07.293Z,89.88
2019-03-31T06:19:03.202Z,89.87
2019-03-31T06:24:17.016Z,89.55
2019-03-31T06:29:13.046Z,89.66
2019-03-31T06:34:08.953Z,89.29
2019-03-31T06:39:06.065Z,88.68
2019-03-31T06:44:01.976Z,87.60
2019-03-31T06:48:57.943Z,87.13
2019-03-31T06:53:53.871Z,87.12
2019-03-31T06:58:49.803Z,85.58
2019-03-31T07:03:45.720Z,84.76
2019-03-31T07:08:41.956Z,83.73
2019-03-31T07:13:37.973Z,82.89
2019-03-31T07:18:34.389Z,82.94
2019-03-31T07:23:30.488Z,82.27
2019-03-31T07:28:26.397Z,81.59
2019-03-31T07:33:22.306Z,80.40
2019-03-31T07:38:18.571Z,79.48
2019-03-31T07:43:14.723Z,78.99
2019-03-31T07:48:10.746Z,79.14
2019-03-31T07:53:06.679Z,80.60
2019-03-31T07:58:02.742Z,79.31
2019-03-31T08:03:00.295Z,78.78
2019-03-31T08:07:56.575Z,77.18
2019-03-31T08:12:52.501Z,75.03
2019-03-31T08:17:49.472Z,76.25
2019-03-31T08:22:45.584Z,73.86
2019-03-31T08:27:41.521Z,74.47
2019-03-31T08:32:37.533Z,73.51
2019-03-31T08:37:33.721Z,73.12
2019-03-31T08:42:29.646Z,74.26
2019-03-31T08:47:25.533Z,72.08
2019-03-31T08:52:21.516Z,72.47
2019-03-31T08:57:17.504Z,72.65
2019-03-31T09:02:30.852Z,71.28
2019-03-31T09:07:26.885Z,70.70
2019-03-31T09:12:22.868Z,73.12
2019-03-31T09:17:19.000Z,71.31
2019-03-31T09:22:15.046Z,70.16
2019-03-31T09:27:11.063Z,68.72
2019-03-31T09:32:07.042Z,68.30
2019-03-31T09:37:03.138Z,66.85
2019-03-31T09:41:59.094Z,67.46
2019-03-31T09:46:55.001Z,68.23
2019-03-31T09:51:50.969Z,69.71
2019-03-31T09:56:46.901Z,67.61
2019-03-31T10:01:42.835Z,66.98
2019-03-31T10:06:38.859Z,65.54
2019-03-31T10:11:34.888Z,65.33
2019-03-31T10:16:30.804Z,68.83
2019-03-31T10:21:26.721Z,67.68
2019-03-31T10:26:31.901Z,66.41
2019-03-31T10:31:20.565Z,66.97
2019-03-31T10:36:16.562Z,70.07
2019-03-31T10:41:12.487Z,70.30
2019-03-31T10:46:08.397Z,68.05
2019-03-31T10:51:04.331Z,67.82
2019-03-31T10:56:00.318Z,67.54
2019-03-31T11:00:56.235Z,68.46
2019-03-31T11:05:52.169Z,67.02
2019-03-31T11:10:48.093Z,66.14
2019-03-31T11:15:44.114Z,63.35
2019-03-31T11:20:40.030Z,61.78
2019-03-31T11:25:35.937Z,65.83
2019-03-31T11:30:32.224Z,63.68
2019-03-31T11:35:28.160Z,64.00
2019-03-31T11:40:24.094Z,66.01
2019-03-31T11:45:20.097Z,67.00
2019-03-31T11:50:16.415Z,66.98
2019-03-31T11:55:13.147Z,66.37
2019-03-31T12:05:23.262Z,61.33
2019-03-31T12:10:20.057Z,60.54
2019-03-31T12:15:16.210Z,61.64
2019-03-31T12:20:13.157Z,59.83
2019-03-31T12:25:09.943Z,59.87
2019-03-31T12:30:06.231Z,62.33
2019-03-31T12:35:04.233Z,63.26
2019-03-31T12:40:00.239Z,60.72
2019-03-31T12:44:56.372Z,57.67
2019-03-31T12:49:52.297Z,53.79
2019-03-31T12:54:50.947Z,49.33
2019-03-31T12:59:46.916Z,53.70
2019-03-31T13:04:42.822Z,53.68
2019-03-31T13:09:38.765Z,54.42
2019-03-31T13:14:34.680Z,52.93
2019-03-31T13:19:30.597Z,54.91
2019-03-31T13:29:46.618Z,55.86
2019-03-31T13:34:42.532Z,52.72
2019-03-31T13:39:38.462Z,50.89
2019-03-31T13:44:34.401Z,53.65
2019-03-31T13:49:30.332Z,51.44
2019-03-31T13:54:27.075Z,49.13
2019-03-31T13:59:23.094Z,48.88
2019-03-31T14:04:19.015Z,49.58
2019-03-31T14:09:14.973Z,49.65
2019-03-31T14:14:10.893Z,51.79
2019-03-31T14:19:06.835Z,51.69
2019-03-31T14:24:02.883Z,48.35
2019-03-31T14:29:01.276Z,50.58
2019-03-31T14:33:57.312Z,50.07
2019-03-31T14:38:53.266Z,52.10
2019-03-31T14:43:49.184Z,53.13
2019-03-31T14:48:45.135Z,50.54
2019-03-31T14:53:41.077Z,49.01
2019-03-31T14:58:37.033Z,48.87
2019-03-31T15:03:32.948Z,49.73
2019-03-31T15:08:28.888Z,50.17
2019-03-31T15:13:24.811Z,52.13
2019-03-31T15:18:24.720Z,50.87
2019-03-31T15:23:29.151Z,50.73
2019-03-31T15:28:28.027Z,49.78
2019-03-31T15:33:26.355Z,48.79
2019-03-31T15:38:25.725Z,47.80
2019-03-31T15:43:22.623Z,46.79
2019-03-31T15:48:18.624Z,46.08
2019-03-31T15:53:14.812Z,44.54
2019-03-31T15:58:10.835Z,45.35
2019-03-31T16:03:07.402Z,48.33
2019-03-31T16:08:03.395Z,47.83
2019-03-31T16:12:59.478Z,47.34
2019-03-31T16:17:55.400Z,46.53
2019-03-31T16:22:51.314Z,47.49
2019-03-31T16:27:47.235Z,43.75
2019-03-31T16:32:43.371Z,45.26
2019-03-31T16:37:40.106Z,46.13
2019-03-31T16:42:38.646Z,44.38
2019-03-31T16:47:39.762Z,43.38
2019-03-31T16:52:38.622Z,44.52
2019-03-31T16:57:36.105Z,45.07
2019-03-31T17:02:32.966Z,43.22
2019-03-31T17:07:29.009Z,44.82
2019-03-31T17:12:26.108Z,44.60
2019-03-31T17:17:22.549Z,45.55
2019-03-31T17:22:18.491Z,45.44
2019-03-31T17:27:14.518Z,47.68
2019-03-31T17:32:11.067Z,45.99
2019-03-31T17:37:06.982Z,45.97
2019-03-31T17:42:02.927Z,48.49
2019-03-31T17:46:58.841Z,49.75
2019-03-31T17:51:54.784Z,50.01
2019-03-31T17:56:50.705Z,51.13
2019-03-31T18:01:52.219Z,52.13
2019-03-31T18:06:52.953Z,52.97
2019-03-31T18:11:56.780Z,52.03
2019-03-31T18:16:55.092Z,51.63
2019-03-31T18:21:51.781Z,52.77
2019-03-31T18:26:48.565Z,53.04
2019-03-31T18:31:44.520Z,53.86
2019-03-31T18:36:40.469Z,53.29
2019-03-31T18:41:36.404Z,54.51
2019-03-31T18:46:32.688Z,54.78
2019-03-31T18:51:28.808Z,54.21
2019-03-31T18:56:45.009Z,55.86
2019-03-31T19:01:42.974Z,57.10
2019-03-31T19:06:40.807Z,56.29
2019-03-31T19:11:53.698Z,56.17
2019-03-31T19:16:51.556Z,56.78
2019-03-31T19:21:55.488Z,57.43
2019-03-31T19:27:09.875Z,57.56
2019-03-31T19:32:07.747Z,57.35
2019-03-31T19:37:20.763Z,57.07
2019-03-31T19:42:18.592Z,56.49
2019-03-31T19:47:20.977Z,57.22
2019-03-31T19:52:35.854Z,57.49
2019-03-31T19:57:50.425Z,57.88
2019-03-31T20:02:57.500Z,57.09
2019-03-31T20:08:13.496Z,55.29
2019-03-31T20:13:17.142Z,55.94
2019-03-31T20:18:15.025Z,56.04
2019-03-31T20:23:15.813Z,57.04
2019-03-31T20:28:16.446Z,58.01
2019-03-31T20:33:14.306Z,58.68
2019-03-31T20:38:12.220Z,59.20
2019-03-31T20:43:12.791Z,60.21
2019-03-31T20:48:08.812Z,60.54
2019-03-31T20:53:04.877Z,60.38
2019-03-31T20:58:00.923Z,60.07
2019-03-31T21:02:56.861Z,60.60
2019-03-31T21:07:52.800Z,61.40
2019-03-31T21:12:48.840Z,61.49
2019-03-31T21:17:44.864Z,61.86
2019-03-31T21:22:40.894Z,62.94
2019-03-31T21:27:36.827Z,63.21
2019-03-31T21:32:32.746Z,63.31
2019-03-31T21:37:28.684Z,63.11
2019-03-31T21:42:24.651Z,63.35
2019-03-31T21:47:20.567Z,63.68
2019-03-31T21:52:16.496Z,63.69
2019-03-31T21:57:12.438Z,64.57
2019-03-31T22:02:08.350Z,64.30
2019-03-31T22:07:04.284Z,65.01
2019-03-31T22:12:00.196Z,65.14
2019-03-31T22:16:56.216Z,64.42
2019-03-31T22:21:52.127Z,65.68
2019-03-31T22:26:48.064Z,65.70
2019-03-31T22:31:44.013Z,65.78
2019-03-31T22:36:39.977Z,65.73
2019-03-31T22:41:35.899Z,65.82
2019-03-31T22:46:31.860Z,66.46
2019-03-31T22:51:27.783Z,66.46
2019-03-31T22:56:23.732Z,67.04
2019-03-31T23:01:19.694Z,67.63
2019-03-31T23:06:15.613Z,67.34
2019-03-31T23:11:11.547Z,67.60
2019-03-31T23:16:07.464Z,67.45
2019-03-31T23:21:03.400Z,68.09
2019-03-31T23:25:59.344Z,67.79
2019-03-31T23:30:55.279Z,68.29
2019-03-31T23:35:51.195Z,67.93
2019-03-31T23:40:47.214Z,68.31
2019-03-31T23:45:43.212Z,68.12
2019-03-31T23:50:39.159Z,68.02
2019-03-31T23:55:35.276Z,68.45
